Time;durP1;ratioP1;P1;durP2;ratioP2;P2;SDS_P1;SDS_P2;PMS_P1;PMS_P2;Temp;Humidity;BMP_temperature;BMP_pressure;BME280_temperature;BME280_humidity;BME280_pressure;Samples;Min_cycle;Max_cycle;Signal;HPM_P1;HPM_P2
2023/12/01 00:01:12;;;;;;;57.87;33.13;;;;;;;-0.80;100.00;100218.22;5327840;28;20039;-72
2023/12/01 00:03:43;;;;;;;51.27;30.80;;;;;;;-0.71;100.00;100214.13;5327408;28;20024;-71
2023/12/01 00:06:14;;;;;;;59.40;34.77;;;;;;;-0.76;100.00;100222.59;5327591;28;20063;-72
2023/12/01 00:08:46;;;;;;;49.80;31.30;;;;;;;-0.69;100.00;100218.47;5327352;28;20069;-72
2023/12/01 00:11:17;;;;;;;52.40;31.87;;;;;;;-0.71;100.00;100227.78;5327107;28;20067;-72
2023/12/01 00:13:49;;;;;;;59.37;35.47;;;;;;;-0.76;100.00;100226.81;5308668;28;20497;-72
2023/12/01 00:16:20;;;;;;;55.33;32.87;;;;;;;-0.76;100.00;100232.81;5327290;28;20425;-73
2023/12/01 00:18:52;;;;;;;50.37;31.60;;;;;;;-0.81;100.00;100233.53;5327183;28;20067;-72
2023/12/01 00:21:23;;;;;;;51.97;31.63;;;;;;;-0.79;100.00;100232.75;5327312;28;20036;-72
2023/12/01 00:23:54;;;;;;;50.57;28.53;;;;;;;-0.81;100.00;100236.94;5326876;28;20061;-71
2023/12/01 00:26:26;;;;;;;50.70;31.57;;;;;;;-0.83;100.00;100235.19;5327144;28;20068;-72
2023/12/01 00:28:58;;;;;;;45.93;30.10;;;;;;;-0.73;100.00;100235.44;5309242;28;20035;-72
2023/12/01 00:31:29;;;;;;;50.80;31.33;;;;;;;-0.81;100.00;100236.94;5327026;28;20058;-72
2023/12/01 00:34:00;;;;;;;48.30;31.33;;;;;;;-0.78;100.00;100238.72;5326565;28;20039;-72
2023/12/01 00:36:33;;;;;;;49.00;29.07;;;;;;;-0.79;100.00;100237.84;5326791;28;20475;-72
2023/12/01 00:39:06;;;;;;;48.92;30.08;;;;;;;-0.73;100.00;100248.22;5326604;28;20549;-73
2023/12/01 00:41:37;;;;;;;49.85;29.33;;;;;;;-0.71;100.00;100242.28;5326744;28;20042;-72
2023/12/01 00:44:09;;;;;;;50.70;30.30;;;;;;;-0.71;100.00;100244.84;5326231;28;20032;-72
2023/12/01 00:46:40;;;;;;;52.20;31.17;;;;;;;-0.76;100.00;100253.28;5326385;28;20398;-71
2023/12/01 00:49:12;;;;;;;49.67;29.97;;;;;;;-0.75;100.00;100254.16;5326061;28;20039;-71
2023/12/01 00:51:45;;;;;;;51.57;28.90;;;;;;;-0.78;100.00;100257.50;5326250;28;20104;-71
2023/12/01 00:54:16;;;;;;;45.03;27.73;;;;;;;-0.85;100.00;100255.63;5326388;28;20168;-72
2023/12/01 00:56:47;;;;;;;48.30;29.07;;;;;;;-0.86;100.00;100260.69;5326515;28;20118;-72
2023/12/01 00:59:19;;;;;;;49.93;30.50;;;;;;;-0.89;100.00;100256.34;5326114;28;20039;-71
2023/12/01 01:01:50;;;;;;;51.27;28.87;;;;;;;-0.84;100.00;100259.88;5307598;28;20027;-72
2023/12/01 01:04:21;;;;;;;50.03;28.53;;;;;;;-0.86;100.00;100253.88;5325944;28;20055;-72
2023/12/01 01:06:53;;;;;;;54.20;30.43;;;;;;;-0.83;100.00;100258.22;5326119;28;20028;-72
2023/12/01 01:09:25;;;;;;;45.63;27.83;;;;;;;-0.90;100.00;100264.88;5326004;28;20040;-71
2023/12/01 01:11:56;;;;;;;53.87;29.67;;;;;;;-0.87;100.00;100267.50;5326059;28;20027;-71
2023/12/01 01:14:27;;;;;;;51.87;29.60;;;;;;;-0.89;100.00;100274.25;5325579;28;20822;-72
2023/12/01 01:16:59;;;;;;;51.67;31.37;;;;;;;-0.88;100.00;100276.00;5325955;28;20120;-71
2023/12/01 01:19:30;;;;;;;57.37;30.90;;;;;;;-0.93;100.00;100280.16;5325810;28;20038;-72
2023/12/01 01:22:02;;;;;;;52.63;29.33;;;;;;;-0.90;100.00;100270.00;5325783;28;20040;-71
2023/12/01 01:24:33;;;;;;;57.27;31.20;;;;;;;-0.93;100.00;100275.03;5325874;28;20143;-72
2023/12/01 01:27:04;;;;;;;50.47;28.37;;;;;;;-0.88;100.00;100278.56;5325765;28;20027;-72
2023/12/01 01:29:36;;;;;;;56.83;30.80;;;;;;;-0.89;100.00;100275.97;5307435;28;20032;-73
2023/12/01 01:32:07;;;;;;;50.57;29.47;;;;;;;-0.92;100.00;100276.75;5307442;28;20115;-72
2023/12/01 01:34:39;;;;;;;58.87;30.97;;;;;;;-0.90;100.00;100282.78;5307422;28;20461;-72
2023/12/01 01:37:10;;;;;;;54.50;30.27;;;;;;;-0.87;100.00;100280.31;5325539;28;20047;-72
2023/12/01 01:39:42;;;;;;;56.50;31.13;;;;;;;-0.96;100.00;100280.94;5325415;28;20445;-71
2023/12/01 01:42:13;;;;;;;52.47;28.87;;;;;;;-0.95;100.00;100276.66;5307299;28;20502;-71
2023/12/01 01:44:46;;;;;;;56.23;30.30;;;;;;;-0.95;100.00;100276.66;5325048;28;20028;-72
2023/12/01 01:47:18;;;;;;;57.35;30.83;;;;;;;-0.93;100.00;100285.28;5325346;28;20066;-71
2023/12/01 01:49:49;;;;;;;58.40;31.80;;;;;;;-0.90;100.00;100276.78;5325753;28;20520;-71
2023/12/01 01:52:21;;;;;;;54.67;31.93;;;;;;;-0.94;100.00;100280.97;5325464;28;20032;-72
2023/12/01 01:54:52;;;;;;;59.25;32.67;;;;;;;-0.91;100.00;100288.72;5325066;28;20110;-71
2023/12/01 01:57:25;;;;;;;57.07;30.77;;;;;;;-0.92;100.00;100292.97;5325264;28;20034;-72
2023/12/01 01:59:56;;;;;;;54.80;30.48;;;;;;;-0.90;100.00;100294.69;5324190;28;20119;-72
2023/12/01 02:02:28;;;;;;;58.73;31.97;;;;;;;-0.86;100.00;100294.81;5307165;28;20127;-73
2023/12/01 02:04:59;;;;;;;59.07;31.40;;;;;;;-0.95;100.00;100302.25;5306978;28;20116;-73
2023/12/01 02:07:31;;;;;;;57.80;30.40;;;;;;;-0.94;100.00;100301.44;5325530;28;20043;-72
2023/12/01 02:10:03;;;;;;;62.13;32.77;;;;;;;-0.91;100.00;100304.06;5325217;28;20035;-72
2023/12/01 02:12:34;;;;;;;61.33;32.22;;;;;;;-0.93;100.00;100308.28;5325318;28;20389;-72
2023/12/01 02:15:10;;;;;;;61.20;30.23;;;;;;;-0.92;100.00;100307.44;5324997;28;20031;-72
2023/12/01 02:17:42;;;;;;;57.65;30.55;;;;;;;-1.07;100.00;100304.50;5329583;28;20069;-87
2023/12/01 02:20:14;;;;;;;63.50;32.97;;;;;;;-1.10;100.00;100308.69;5328859;28;20024;-86
2023/12/01 02:22:46;;;;;;;55.38;30.58;;;;;;;-1.15;100.00;100311.97;5328139;28;20089;-87
2023/12/01 02:25:17;;;;;;;59.30;31.30;;;;;;;-1.11;100.00;100317.22;5331670;28;20051;-88
2023/12/01 02:27:49;;;;;;;58.23;31.20;;;;;;;-1.12;100.00;100314.59;5329496;28;20031;-85
2023/12/01 02:30:21;;;;;;;53.42;28.40;;;;;;;-1.17;100.00;100316.19;5327383;28;20032;-87
2023/12/01 02:32:52;;;;;;;58.63;31.03;;;;;;;-1.19;100.00;100322.91;5328441;28;20391;-88
2023/12/01 02:35:29;;;;;;;58.53;30.33;;;;;;;-1.25;100.00;100312.56;5326663;28;20033;-86
2023/12/01 02:38:00;;;;;;;57.78;29.08;;;;;;;-1.20;100.00;100318.66;5328409;28;20087;-87
2023/12/01 02:40:32;;;;;;;57.40;30.20;;;;;;;-1.24;100.00;100314.25;5328720;28;20107;-86
2023/12/01 02:43:05;;;;;;;61.23;32.13;;;;;;;-1.22;100.00;100310.94;5326160;28;20032;-86
2023/12/01 02:45:36;;;;;;;55.13;29.40;;;;;;;-1.27;100.00;100302.28;5325464;28;20032;-85
2023/12/01 02:48:08;;;;;;;62.33;29.60;;;;;;;-1.25;100.00;100310.00;5308114;28;20099;-87
2023/12/01 02:50:39;;;;;;;60.40;31.70;;;;;;;-1.25;100.00;100310.00;5326948;28;20067;-87
2023/12/01 02:53:11;;;;;;;60.93;31.30;;;;;;;-1.27;100.00;100306.50;5307716;28;20038;-87
2023/12/01 02:55:42;;;;;;;64.90;33.17;;;;;;;-1.21;100.00;100309.22;5326093;28;20096;-87
2023/12/01 02:58:14;;;;;;;57.30;31.20;;;;;;;-1.20;100.00;100306.72;5325591;28;20028;-87
2023/12/01 03:00:45;;;;;;;61.27;31.37;;;;;;;-1.23;100.00;100305.78;5326052;28;20039;-86
2023/12/01 03:03:17;;;;;;;58.33;30.93;;;;;;;-1.19;100.00;100312.69;5326688;28;20055;-87
2023/12/01 03:05:48;;;;;;;62.27;31.30;;;;;;;-1.21;100.00;100302.41;5326593;28;20036;-84
2023/12/01 03:08:20;;;;;;;61.27;32.93;;;;;;;-1.20;100.00;100309.28;5327910;28;20055;-86
2023/12/01 03:10:53;;;;;;;58.97;31.00;;;;;;;-1.22;100.00;100318.59;5326253;28;20070;-86
2023/12/01 03:13:25;;;;;;;64.25;30.77;;;;;;;-1.27;100.00;100309.94;5311471;28;20114;-86
2023/12/01 03:15:56;;;;;;;67.07;33.40;;;;;;;-1.29;100.00;100311.56;5330283;28;20115;-86
2023/12/01 03:18:27;;;;;;;68.63;34.40;;;;;;;-1.26;100.00;100310.81;5329417;28;20114;-87
2023/12/01 03:20:59;;;;;;;72.87;34.87;;;;;;;-1.23;100.00;100316.00;5329548;28;20035;-86
2023/12/01 03:23:30;;;;;;;66.00;37.50;;;;;;;-1.21;100.00;100320.31;5329337;28;20092;-86
2023/12/01 03:26:01;;;;;;;63.83;32.13;;;;;;;-1.16;100.00;100325.56;5329950;28;20164;-86
2023/12/01 03:28:33;;;;;;;68.43;35.47;;;;;;;-1.18;100.00;100322.13;5330436;28;20119;-86
2023/12/01 03:31:05;;;;;;;66.87;32.47;;;;;;;-1.16;100.00;100321.34;5329741;28;20040;-85
2023/12/01 03:33:36;;;;;;;69.17;34.17;;;;;;;-1.18;100.00;100322.13;5329429;28;20254;-87
2023/12/01 03:36:08;;;;;;;77.83;37.57;;;;;;;-1.15;100.00;100327.31;5329514;28;20113;-87
2023/12/01 03:38:39;;;;;;;73.13;34.00;;;;;;;-1.12;100.00;100329.97;5329919;28;20076;-87
2023/12/01 03:41:11;;;;;;;79.00;37.03;;;;;;;-1.23;100.00;100329.66;5333422;28;20118;-86
2023/12/01 03:43:42;;;;;;;74.57;35.70;;;;;;;-1.21;100.00;100337.38;5335734;28;20042;-87
2023/12/01 03:46:13;;;;;;;82.73;38.37;;;;;;;-1.21;100.00;100330.56;5330183;28;20050;-88
2023/12/01 03:48:45;;;;;;;74.17;36.10;;;;;;;-1.27;100.00;100330.41;5335122;28;20463;-87
2023/12/01 03:51:16;;;;;;;71.43;34.73;;;;;;;-1.29;100.00;100326.91;5333194;28;20027;-88
2023/12/01 03:53:48;;;;;;;83.23;37.33;;;;;;;-1.27;100.00;100332.06;5333238;28;20041;-87
2023/12/01 03:56:19;;;;;;;80.83;35.30;;;;;;;-1.24;100.00;100339.84;5333439;28;20522;-86
2023/12/01 03:58:55;;;;;;;81.87;36.53;;;;;;;-1.27;100.00;100345.75;5294757;28;20381;-87
2023/12/01 04:01:26;;;;;;;88.32;37.90;;;;;;;-1.30;100.00;100343.09;5329295;28;20042;-87
2023/12/01 04:04:01;;;;;;;87.07;39.70;;;;;;;-1.32;100.00;100347.28;5334108;28;20035;-86
2023/12/01 04:06:33;;;;;;;86.65;39.10;;;;;;;-1.29;100.00;100355.06;5332622;28;20031;-87
2023/12/01 04:09:09;;;;;;;89.22;39.22;;;;;;;-1.33;100.00;100355.81;5329707;28;20483;-87
2023/12/01 04:11:41;;;;;;;86.15;36.88;;;;;;;-1.32;100.00;100358.41;5328497;28;20038;-87
2023/12/01 04:14:12;;;;;;;80.35;35.58;;;;;;;-1.40;100.00;100357.31;5328573;28;20027;-87
2023/12/01 04:16:46;;;;;;;84.50;37.60;;;;;;;-1.38;100.00;100362.47;5328311;28;20045;-86
2023/12/01 04:19:18;;;;;;;82.25;35.72;;;;;;;-1.43;100.00;100367.47;5328977;28;20363;-85
2023/12/01 04:21:49;;;;;;;76.30;33.67;;;;;;;-1.44;100.00;100368.28;5328371;28;20061;-86
2023/12/01 04:24:21;;;;;;;84.60;32.80;;;;;;;-1.46;100.00;100372.47;5309875;28;20168;-86
2023/12/01 04:26:52;;;;;;;78.77;32.47;;;;;;;-1.46;100.00;100369.91;5310574;28;20036;-86
2023/12/01 04:29:23;;;;;;;66.50;30.57;;;;;;;-1.45;100.00;100371.63;5328005;28;20035;-87
2023/12/01 04:31:56;;;;;;;81.17;34.37;;;;;;;-1.38;100.00;100382.94;5327638;28;20125;-86
2023/12/01 04:34:27;;;;;;;82.20;34.28;;;;;;;-1.43;100.00;100376.78;5328016;28;20400;-86
2023/12/01 04:36:59;;;;;;;76.97;34.67;;;;;;;-1.40;100.00;100374.31;5328182;28;20063;-87
2023/12/01 04:39:31;;;;;;;79.20;34.92;;;;;;;-1.44;100.00;100377.63;5309283;28;20472;-87
2023/12/01 04:42:02;;;;;;;76.00;35.00;;;;;;;-1.44;100.00;100378.50;5327646;28;20173;-86
2023/12/01 04:44:34;;;;;;;75.60;33.47;;;;;;;-1.45;100.00;100376.75;5328504;28;20051;-87
2023/12/01 04:47:05;;;;;;;74.17;33.37;;;;;;;-1.49;100.00;100377.50;5311672;28;20043;-87
2023/12/01 04:49:37;;;;;;;84.53;36.77;;;;;;;-1.51;100.00;100382.56;5331330;28;20035;-86
2023/12/01 04:52:08;;;;;;;84.73;36.67;;;;;;;-1.47;100.00;100386.94;5328639;28;20032;-87
2023/12/01 04:54:39;;;;;;;81.57;35.57;;;;;;;-1.48;100.00;100400.56;5328040;28;20060;-87
2023/12/01 04:57:11;;;;;;;84.50;38.63;;;;;;;-1.49;100.00;100396.25;5328084;28;20032;-87
2023/12/01 04:59:42;;;;;;;86.63;37.67;;;;;;;-1.51;100.00;100392.78;5327019;28;20034;-87
2023/12/01 05:02:13;;;;;;;88.70;40.30;;;;;;;-1.50;100.00;100399.66;5327447;28;20110;-86
2023/12/01 05:04:47;;;;;;;90.17;39.97;;;;;;;-1.55;100.00;100406.28;5327732;28;20401;-87
2023/12/01 05:07:18;;;;;;;89.57;40.33;;;;;;;-1.50;100.00;100403.88;5327750;28;20138;-88
2023/12/01 05:09:50;;;;;;;96.00;41.57;;;;;;;-1.57;100.00;100409.63;5328150;28;20032;-87
2023/12/01 05:12:21;;;;;;;91.00;39.23;;;;;;;-1.48;100.00;100410.78;5326936;28;20100;-87
2023/12/01 05:14:53;;;;;;;88.27;37.87;;;;;;;-1.40;100.00;100410.13;5309052;28;20080;-86
2023/12/01 05:17:25;;;;;;;94.68;41.80;;;;;;;-1.44;100.00;100404.06;5326797;28;20102;-86
2023/12/01 05:19:56;;;;;;;86.63;38.80;;;;;;;-1.45;100.00;100412.53;5327155;28;20024;-87
2023/12/01 05:22:27;;;;;;;89.87;39.50;;;;;;;-1.45;100.00;100414.25;5326957;28;20066;-87
2023/12/01 05:25:01;;;;;;;102.07;42.43;;;;;;;-1.36;100.00;100420.50;5327340;28;20031;-87
2023/12/01 05:27:32;;;;;;;97.90;42.08;;;;;;;-1.36;100.00;100427.31;5326891;28;20364;-88
2023/12/01 05:30:05;;;;;;;100.33;44.13;;;;;;;-1.34;100.00;100423.94;5308704;28;20027;-88
2023/12/01 05:32:36;;;;;;;91.78;39.58;;;;;;;-1.28;100.00;100425.84;5326980;28;20031;-87
2023/12/01 05:35:11;;;;;;;93.80;40.97;;;;;;;-1.31;100.00;100425.75;5328541;28;20489;-88
2023/12/01 05:37:50;;;;;;;97.18;42.42;;;;;;;-1.31;100.00;100434.28;5329064;28;20052;-88
2023/12/01 05:40:28;;;;;;;102.47;42.85;;;;;;;-1.34;100.00;100433.31;5328241;28;20043;-87
2023/12/01 05:42:59;;;;;;;91.25;39.95;;;;;;;-1.39;100.00;100424.66;5327153;28;20028;-87
2023/12/01 05:45:35;;;;;;;94.50;43.40;;;;;;;-1.36;100.00;100432.41;5310222;28;20088;-87
2023/12/01 05:48:06;;;;;;;86.40;42.25;;;;;;;-1.39;100.00;100437.44;5310072;28;20467;-87
2023/12/01 05:50:42;;;;;;;92.93;43.07;;;;;;;-1.42;100.00;100448.44;5329627;28;20070;-88
2023/12/01 05:53:13;;;;;;;87.93;41.10;;;;;;;-1.39;100.00;100442.56;5330142;28;20036;-87
2023/12/01 05:55:44;;;;;;;93.07;44.23;;;;;;;-1.40;100.00;100444.25;5328662;28;20057;-87
2023/12/01 05:58:16;;;;;;;84.93;38.67;;;;;;;-1.32;100.00;100447.00;5327293;28;20111;-88
2023/12/01 06:00:47;;;;;;;82.50;38.57;;;;;;;-1.41;100.00;100441.66;5328630;28;20080;-88
2023/12/01 06:03:19;;;;;;;87.93;42.63;;;;;;;-1.38;100.00;100445.16;5332094;28;20028;-88
2023/12/01 06:05:50;;;;;;;80.33;37.57;;;;;;;-1.40;100.00;100454.47;5335492;28;20489;-86
2023/12/01 06:08:22;;;;;;;80.83;39.00;;;;;;;-1.40;100.00;100454.47;5338640;28;20047;-88
2023/12/01 06:10:53;;;;;;;70.13;35.97;;;;;;;-1.37;100.00;100453.69;5337857;28;20061;-88
2023/12/01 06:13:24;;;;;;;79.37;38.70;;;;;;;-1.39;100.00;100451.09;5338076;28;20032;-87
2023/12/01 06:15:56;;;;;;;77.07;37.73;;;;;;;-1.33;100.00;100452.97;5336878;28;20092;-87
2023/12/01 06:18:29;;;;;;;75.43;37.53;;;;;;;-1.37;100.00;100452.00;5334066;28;20102;-87
2023/12/01 06:21:01;;;;;;;75.80;39.15;;;;;;;-1.39;100.00;100458.75;5331173;28;20028;-89
2023/12/01 06:23:32;;;;;;;78.33;38.23;;;;;;;-1.33;100.00;100450.41;5332775;28;20077;-88
2023/12/01 06:26:04;;;;;;;69.23;36.30;;;;;;;-1.35;100.00;100459.75;5330944;28;20459;-88
2023/12/01 06:28:35;;;;;;;69.77;35.43;;;;;;;-1.39;100.00;100452.78;5329475;28;20051;-86
2023/12/01 06:31:07;;;;;;;65.57;36.33;;;;;;;-1.36;100.00;100447.75;5329713;28;20047;-86
2023/12/01 06:33:38;;;;;;;66.00;36.20;;;;;;;-1.40;100.00;100456.16;5329475;28;20367;-87
2023/12/01 06:36:10;;;;;;;62.13;34.70;;;;;;;-1.33;100.00;100463.19;5329207;28;20507;-86
2023/12/01 06:38:41;;;;;;;61.67;33.83;;;;;;;-1.33;100.00;100468.31;5310985;28;20054;-87
2023/12/01 06:41:12;;;;;;;65.77;35.73;;;;;;;-1.30;100.00;100470.97;5329577;28;20435;-86
2023/12/01 06:43:44;;;;;;;60.87;35.20;;;;;;;-1.34;100.00;100469.97;5326629;28;20043;-85
2023/12/01 06:46:15;;;;;;;60.43;34.63;;;;;;;-1.25;100.00;100479.63;5310035;28;20028;-85
2023/12/01 06:48:47;;;;;;;65.50;35.53;;;;;;;-1.25;100.00;100469.41;5313842;28;20069;-85
2023/12/01 06:51:18;;;;;;;63.60;35.83;;;;;;;-1.25;100.00;100471.09;5330906;28;20420;-86
2023/12/01 06:53:49;;;;;;;62.50;34.37;;;;;;;-1.24;100.00;100470.25;5311827;28;20040;-85
2023/12/01 06:56:21;;;;;;;61.93;34.07;;;;;;;-1.20;100.00;100477.22;5330269;28;20027;-84
2023/12/01 06:58:52;;;;;;;60.97;33.40;;;;;;;-1.22;100.00;100482.28;5330659;28;20068;-85
2023/12/01 07:01:23;;;;;;;63.83;35.00;;;;;;;-1.22;100.00;100477.19;5330430;28;20035;-86
2023/12/01 07:03:55;;;;;;;62.10;33.40;;;;;;;-1.25;100.00;100479.63;5331323;28;20032;-85
2023/12/01 07:06:26;;;;;;;55.40;31.10;;;;;;;-1.25;100.00;100483.91;5330560;28;20471;-86
2023/12/01 07:08:58;;;;;;;61.30;33.63;;;;;;;-1.24;100.00;100486.50;5331114;28;20035;-85
2023/12/01 07:11:30;;;;;;;65.22;32.38;;;;;;;-1.24;100.00;100483.06;5332247;28;20032;-85
2023/12/01 07:14:01;;;;;;;57.80;31.40;;;;;;;-1.21;100.00;100489.13;5329098;28;20092;-86
2023/12/01 07:16:32;;;;;;;59.90;32.37;;;;;;;-1.19;100.00;100495.19;5349076;28;20023;-84
2023/12/01 07:19:04;;;;;;;58.30;31.97;;;;;;;-1.24;100.00;100499.28;5350625;28;20011;-84
2023/12/01 07:21:35;;;;;;;53.30;30.23;;;;;;;-1.16;100.00;100502.94;5350032;28;20446;-85
2023/12/01 07:24:08;;;;;;;58.67;31.30;;;;;;;-1.14;100.00;100496.19;5350873;28;20039;-84
2023/12/01 07:26:39;;;;;;;55.70;28.80;;;;;;;-1.16;100.00;100494.38;5350061;28;20099;-84
2023/12/01 07:29:10;;;;;;;55.87;31.70;;;;;;;-1.11;100.00;100500.53;5316721;28;20391;-85
2023/12/01 07:31:42;;;;;;;56.37;32.30;;;;;;;-1.13;100.00;100500.47;5313159;28;20489;-84
2023/12/01 07:34:13;;;;;;;54.03;30.37;;;;;;;-1.08;100.00;100498.03;5330180;28;20038;-85
2023/12/01 07:36:44;;;;;;;51.70;30.03;;;;;;;-1.12;100.00;100498.78;5330765;28;20532;-85
2023/12/01 07:39:16;;;;;;;52.37;29.40;;;;;;;-1.07;100.00;100497.22;5329757;28;20019;-85
2023/12/01 07:41:47;;;;;;;54.50;30.37;;;;;;;-1.05;100.00;100502.38;5330330;28;20028;-83
2023/12/01 07:44:18;;;;;;;54.20;28.60;;;;;;;-1.03;100.00;100508.41;5328828;28;20457;-86
2023/12/01 07:46:50;;;;;;;50.93;27.63;;;;;;;-1.01;100.00;100499.97;5329153;28;20031;-85
2023/12/01 07:49:22;;;;;;;49.65;28.83;;;;;;;-1.04;100.00;100499.88;5310268;28;20045;-85
2023/12/01 07:51:55;;;;;;;49.07;27.70;;;;;;;-0.99;100.00;100493.19;5310555;28;20023;-86
2023/12/01 07:54:26;;;;;;;;;;;;;;;-0.91;100.00;100498.53;5330266;28;20088;-86
2023/12/01 07:56:58;;;;;;;50.88;28.02;;;;;;;-0.98;100.00;100497.50;5328738;28;19912;-86
2023/12/01 07:59:30;;;;;;;50.20;28.83;;;;;;;-0.96;100.00;100493.28;5327622;28;20119;-85
2023/12/01 08:02:02;;;;;;;;;;;;;;;-0.90;100.00;100489.16;5328764;28;20387;-84
2023/12/01 08:04:33;;;;;;;51.17;27.77;;;;;;;-0.95;100.00;100502.72;5328372;28;19915;-85
2023/12/01 08:07:05;;;;;;;52.23;29.80;;;;;;;-0.92;100.00;100494.22;5328424;28;20027;-85
2023/12/01 08:09:37;;;;;;;55.17;29.73;;;;;;;-0.91;100.00;100495.97;5328289;28;20126;-85
2023/12/01 08:12:09;;;;;;;;;;;;;;;-0.83;100.00;100496.22;5328763;28;20039;-84
2023/12/01 08:14:40;;;;;;;52.20;29.27;;;;;;;-0.92;100.00;100504.47;5328499;28;19919;-86
2023/12/01 08:17:11;;;;;;;47.23;27.27;;;;;;;-0.86;100.00;100502.09;5328931;28;20027;-85
2023/12/01 08:19:43;;;;;;;49.30;27.87;;;;;;;-0.82;100.00;100505.59;5328693;28;20467;-86
2023/12/01 08:22:14;;;;;;;58.53;31.20;;;;;;;-0.88;100.00;100506.31;5328826;28;20069;-85
2023/12/01 08:24:46;;;;;;;55.07;30.40;;;;;;;-0.84;100.00;100514.94;5329033;28;20039;-87
2023/12/01 08:27:17;;;;;;;47.80;29.63;;;;;;;-0.80;100.00;100514.22;5329793;28;20038;-86
2023/12/01 08:29:50;;;;;;;59.53;31.53;;;;;;;-0.81;100.00;100515.88;5328353;28;20158;-84
2023/12/01 08:32:21;;;;;;;49.45;29.88;;;;;;;-0.76;100.00;100518.59;5327538;28;20536;-81
2023/12/01 08:34:54;;;;;;;52.37;28.70;;;;;;;-0.78;100.00;100525.34;5327479;28;20057;-85
2023/12/01 08:37:25;;;;;;;51.72;29.45;;;;;;;-0.71;100.00;100523.84;5328036;28;20378;-85
2023/12/01 08:39:57;;;;;;;51.13;28.73;;;;;;;-0.70;100.00;100530.72;5327485;28;20036;-80
2023/12/01 08:42:28;;;;;;;53.70;30.50;;;;;;;-0.71;100.00;100532.38;5327455;28;20059;-83
2023/12/01 08:44:59;;;;;;;50.03;28.13;;;;;;;-0.69;100.00;100532.41;5327353;28;20111;-84
2023/12/01 08:47:31;;;;;;;60.90;31.37;;;;;;;-0.65;100.00;100536.81;5327179;28;20032;-82
2023/12/01 08:50:02;;;;;;;53.97;30.77;;;;;;;-0.58;100.00;100538.72;5327370;28;20047;-83
2023/12/01 08:52:34;;;;;;;52.80;29.27;;;;;;;-0.57;100.00;100533.63;5327485;28;20035;-85
2023/12/01 08:55:06;;;;;;;54.07;29.87;;;;;;;-0.60;100.00;100532.69;5309428;28;20066;-84
2023/12/01 08:57:37;;;;;;;51.58;28.35;;;;;;;-0.56;100.00;100534.53;5327695;28;20032;-86
2023/12/01 09:00:10;;;;;;;52.97;28.53;;;;;;;-0.61;100.00;100539.50;5327355;28;20027;-84
2023/12/01 09:02:41;;;;;;;47.03;25.92;;;;;;;-0.53;100.00;100544.88;5327552;28;20036;-86
2023/12/01 09:05:13;;;;;;;48.40;27.30;;;;;;;-0.48;100.00;100538.16;5309399;28;20027;-86
2023/12/01 09:07:48;;;;;;;47.07;26.60;;;;;;;-0.50;100.00;100539.84;5328008;28;20062;-84
2023/12/01 09:10:22;;;;;;;45.75;26.55;;;;;;;-0.43;100.00;100544.28;5327378;28;20043;-87
2023/12/01 09:12:53;;;;;;;44.45;25.05;;;;;;;-0.44;100.00;100541.69;5310682;28;20057;-86
2023/12/01 09:15:25;;;;;;;42.70;23.27;;;;;;;-0.37;100.00;100548.72;5330181;28;20065;-84
2023/12/01 09:17:56;;;;;;;42.03;23.97;;;;;;;-0.28;100.00;100553.22;5312992;28;20039;-86
2023/12/01 09:20:27;;;;;;;39.37;22.97;;;;;;;-0.28;100.00;100554.06;5330261;28;20033;-85
2023/12/01 09:22:59;;;;;;;32.60;19.60;;;;;;;-0.27;100.00;100549.84;5329416;28;20031;-85
2023/12/01 09:25:30;;;;;;;33.10;18.30;;;;;;;-0.26;100.00;100561.81;5330349;28;20100;-85
2023/12/01 09:28:02;;;;;;;35.73;20.90;;;;;;;-0.25;100.00;100558.44;5312607;28;20028;-86
2023/12/01 09:30:33;;;;;;;29.00;17.93;;;;;;;-0.29;100.00;100565.16;5311507;28;20023;-86
2023/12/01 09:33:05;;;;;;;31.40;19.07;;;;;;;-0.27;100.00;100565.22;5330490;28;20036;-86
2023/12/01 09:35:38;;;;;;;28.40;18.55;;;;;;;-0.30;100.00;100567.69;5330627;28;20482;-86
2023/12/01 09:38:10;;;;;;;33.38;19.50;;;;;;;-0.27;100.00;100560.09;5329444;28;20032;-86
2023/12/01 09:40:42;;;;;;;29.07;18.33;;;;;;;-0.27;100.00;100568.63;5329525;28;20035;-86
2023/12/01 09:43:18;;;;;;;26.77;17.35;;;;;;;-0.25;100.00;100577.22;5328753;28;20110;-86
2023/12/01 09:45:50;;;;;;;28.30;18.33;;;;;;;-0.25;100.00;100578.91;5328415;28;20144;-86
2023/12/01 09:48:22;;;;;;;27.58;17.17;;;;;;;-0.17;100.00;100589.38;5328220;28;20051;-86
2023/12/01 09:50:54;;;;;;;29.00;17.93;;;;;;;-0.15;100.00;100580.91;5308020;28;20074;-86
2023/12/01 09:53:26;;;;;;;26.63;16.85;;;;;;;-0.07;100.00;100589.66;5308562;28;20371;-86
2023/12/01 09:55:58;;;;;;;29.60;17.47;;;;;;;-0.02;100.00;100589.78;5326265;28;20020;-86
2023/12/01 09:58:30;;;;;;;28.83;18.00;;;;;;;0.00;100.00;100590.72;5290654;28;20080;-86
2023/12/01 10:01:02;;;;;;;27.10;18.00;;;;;;;-0.02;100.00;100585.56;5325732;28;20067;-86
2023/12/01 10:03:33;;;;;;;28.90;17.50;;;;;;;0.03;100.00;100592.47;5325776;28;20032;-86
2023/12/01 10:06:07;;;;;;;26.67;17.37;;;;;;;0.12;100.00;100591.03;5325686;28;20031;-86
2023/12/01 10:08:39;;;;;;;25.70;17.25;;;;;;;0.15;100.00;100587.69;5341814;27;20463;-86
2023/12/01 10:11:24;;;;;;;24.10;16.35;;;;;;;0.27;100.00;100582.88;5326075;28;20054;-86
2023/12/01 10:13:56;;;;;;;28.10;17.58;;;;;;;0.21;100.00;100590.41;5326090;28;20392;-85
2023/12/01 10:16:34;;;;;;;24.50;15.98;;;;;;;0.27;100.00;100590.56;5326133;28;20042;-86
2023/12/01 10:19:06;;;;;;;28.73;18.35;;;;;;;0.29;100.00;100582.91;5326403;28;20486;-87
2023/12/01 10:21:43;;;;;;;28.03;18.10;;;;;;;0.29;100.00;100593.16;5327295;28;20020;-86
2023/12/01 10:24:22;;;;;;;27.63;17.02;;;;;;;0.36;100.00;100585.66;5331392;28;20027;-86
2023/12/01 10:26:55;;;;;;;28.02;18.58;;;;;;;0.36;100.00;100577.97;5331457;28;20041;-86
2023/12/01 10:29:30;;;;;;;;;;;;;;;0.61;100.00;100586.31;5331599;28;20067;-86
2023/12/01 10:32:07;;;;;;;25.42;16.98;;;;;;;0.51;100.00;100589.44;5330577;28;19915;-84
2023/12/01 10:34:39;;;;;;;26.20;17.48;;;;;;;0.54;100.00;100585.25;5311928;28;20027;-86
2023/12/01 10:37:10;;;;;;;26.20;17.63;;;;;;;0.63;100.00;100589.75;5330055;28;20379;-85
2023/12/01 10:39:43;;;;;;;26.17;17.20;;;;;;;0.67;100.00;100586.44;5330057;28;20401;-87
2023/12/01 10:42:16;;;;;;;26.23;17.23;;;;;;;0.69;100.00;100582.22;5311855;28;20059;-87
2023/12/01 10:44:48;;;;;;;21.45;15.00;;;;;;;0.63;100.00;100579.50;5330676;28;20028;-88
2023/12/01 10:47:21;;;;;;;;;;;;;;;0.84;100.00;100586.00;5331163;28;20027;-87
2023/12/01 10:49:55;;;;;;;26.25;16.73;;;;;;;0.66;100.00;100584.72;5330548;28;19915;-87
2023/12/01 10:52:27;;;;;;;24.17;16.45;;;;;;;0.70;100.00;100583.94;5329661;28;20088;-87
2023/12/01 10:54:59;;;;;;;22.55;15.52;;;;;;;0.71;100.00;100582.25;5311691;28;20032;-86
2023/12/01 10:57:40;;;;;;;23.77;16.40;;;;;;;0.63;100.00;100581.19;5313618;28;20132;-87
2023/12/01 11:00:29;;;;;;;26.60;16.45;;;;;;;0.62;100.00;100579.47;5329848;28;20050;-87
2023/12/01 11:03:03;;;;;;;24.58;16.45;;;;;;;0.70;100.00;100578.81;5330031;28;20027;-87
2023/12/01 11:05:36;;;;;;;23.83;15.65;;;;;;;0.71;100.00;100583.13;5330169;28;20454;-88
2023/12/01 11:08:23;;;;;;;26.10;17.15;;;;;;;0.72;100.00;100574.59;5330144;28;20113;-87
2023/12/01 11:11:07;;;;;;;23.02;16.33;;;;;;;0.66;100.00;100583.81;5329877;28;20118;-86
2023/12/01 11:13:48;;;;;;;26.30;16.25;;;;;;;0.53;100.00;100583.53;5311323;28;20027;-87
2023/12/01 11:16:19;;;;;;;21.33;15.18;;;;;;;0.63;100.00;100583.75;5329782;28;20033;-86
2023/12/01 11:18:51;;;;;;;22.63;14.60;;;;;;;0.51;100.00;100582.63;5311402;28;20115;-86
2023/12/01 11:21:22;;;;;;;24.77;15.47;;;;;;;0.53;100.00;100578.41;5333516;28;20031;-86
2023/12/01 11:23:54;;;;;;;22.23;15.60;;;;;;;0.54;100.00;100579.28;5334515;28;20084;-86
2023/12/01 11:26:31;;;;;;;22.97;14.23;;;;;;;0.59;100.00;100582.81;5315746;28;20035;-86